Time;durP1;ratioP1;P1;durP2;ratioP2;P2;SDS_P1;SDS_P2;PMS_P1;PMS_P2;Temp;Humidity;BMP_temperature;BMP_pressure;BME280_temperature;BME280_humidity;BME280_pressure;Samples;Min_cycle;Max_cycle;Signal;HPM_P1;HPM_P2
2024/03/13 00:01:35;;;;;;;;;;;;;;;-144.99;100.00;67352.69;5099352;28;19916;-80
2024/03/13 00:04:00;;;;;;;;;;;;;;;-144.99;100.00;67352.69;5091400;28;19920;-80
2024/03/13 00:06:26;;;;;;;;;;;;;;;-144.99;100.00;67352.69;5100451;28;19995;-80
2024/03/13 00:08:53;;;;;;;;;;;;;;;-144.99;100.00;67352.69;5102000;28;20037;-80
2024/03/13 00:11:19;;;;;;;;;;;;;;;-144.99;100.00;67352.69;5103342;28;19919;-80
2024/03/13 00:13:45;;;;;;;;;;;;;;;-144.99;100.00;67352.69;5105269;28;19919;-80
2024/03/13 00:16:12;;;;;;;;;;;;;;;-144.99;100.00;67352.69;5105723;28;19912;-80
2024/03/13 00:18:37;;;;;;;;;;;;;;;-144.99;100.00;67352.69;5104627;28;19919;-80
2024/03/13 00:21:03;;;;;;;;;;;;;;;-144.99;100.00;67352.69;5108164;28;19913;-80
2024/03/13 00:23:28;;;;;;;;;;;;;;;-144.99;100.00;67352.69;5108878;28;19955;-80
2024/03/13 00:25:54;;;;;;;;;;;;;;;-144.99;100.00;67352.69;5108686;28;19916;-80
2024/03/13 00:28:21;;;;;;;;;;;;;;;-144.99;100.00;67352.69;5108847;28;20405;-80
2024/03/13 00:30:47;;;;;;;;;;;;;;;-144.99;100.00;67352.69;5107487;28;19950;-80
2024/03/13 00:33:12;;;;;;;;;;;;;;;-144.99;100.00;67352.69;5106009;28;19912;-80
2024/03/13 00:35:37;;;;;;;;;;;;;;;-144.99;100.00;67352.69;5107292;28;19916;-80
2024/03/13 00:38:03;;;;;;;;;;;;;;;-144.99;100.00;67352.69;5106858;28;19912;-80
2024/03/13 00:40:29;;;;;;;;;;;;;;;-144.99;100.00;67352.69;5105072;28;19919;-80
2024/03/13 00:42:54;;;;;;;;;;;;;;;-144.99;100.00;67352.69;5105562;28;19919;-80
2024/03/13 00:45:20;;;;;;;;;;;;;;;-144.99;100.00;67352.69;5104767;28;19970;-80
2024/03/13 00:47:45;;;;;;;;;;;;;;;-144.99;100.00;67352.69;5106043;28;20294;-80
2024/03/13 00:50:15;;;;;;;;;;;;;;;-144.99;100.00;67352.69;5105420;28;19918;-80
2024/03/13 00:52:40;;;;;;;;;;;;;;;-144.99;100.00;67352.69;5105224;28;19912;-80
2024/03/13 00:55:09;;;;;;;;;;;;;;;-144.99;100.00;67352.69;5104796;28;19980;-80
2024/03/13 00:57:35;;;;;;;;;;;;;;;-144.99;100.00;67352.69;5105938;28;19955;-80
2024/03/13 01:00:00;;;;;;;;;;;;;;;-144.99;100.00;67352.69;5104963;28;19912;-80
2024/03/13 01:02:26;;;;;;;;;;;;;;;-144.99;100.00;67352.69;5103302;28;19913;-80
2024/03/13 01:04:54;;;;;;;;;;;;;;;-144.99;100.00;67352.69;5104989;28;20035;-80
2024/03/13 01:07:20;;;;;;;;;;;;;;;-144.99;100.00;67352.69;5104352;28;19912;-80
2024/03/13 01:09:45;;;;;;;;;;;;;;;-144.99;100.00;67352.69;5104414;28;19926;-80
2024/03/13 01:12:10;;;;;;;;;;;;;;;-144.99;100.00;67352.69;5107108;28;19913;-81
2024/03/13 01:14:35;;;;;;;;;;;;;;;-144.99;100.00;67352.69;5104932;28;19919;-80
2024/03/13 01:17:02;;;;;;;;;;;;;;;-144.99;100.00;67352.69;5105471;28;19912;-80
2024/03/13 01:19:30;;;;;;;;;;;;;;;-144.99;100.00;67352.69;5103005;28;20006;-80
2024/03/13 01:22:03;;;;;;;;;;;;;;;-144.99;100.00;67352.69;5104274;28;19912;-80
2024/03/13 01:24:29;;;;;;;;;;;;;;;-144.99;100.00;67352.69;5103952;28;19920;-80
2024/03/13 01:26:54;;;;;;;;;;;;;;;-144.99;100.00;67352.69;5104172;28;20374;-80
2024/03/13 01:29:20;;;;;;;;;;;;;;;-144.99;100.00;67352.69;5104714;28;19912;-80
2024/03/13 01:31:45;;;;;;;;;;;;;;;-144.99;100.00;67352.69;5103641;28;20282;-80
2024/03/13 01:34:10;;;;;;;;;;;;;;;-144.99;100.00;67352.69;5102785;28;19912;-80
2024/03/13 01:39:20;;;;;;;;;;;;;;;-144.99;100.00;67352.69;5104092;28;20420;-80
2024/03/13 01:55:35;;;;;;;;;;;;;;;-144.99;100.00;67352.69;5103818;28;19958;-80
2024/03/13 02:03:21;;;;;;;;;;;;;;;-144.99;100.00;67352.69;5086061;28;19916;-80
2024/03/13 02:05:48;;;;;;;;;;;;;;;-144.99;100.00;67352.69;5094967;28;19919;-80
2024/03/13 02:08:14;;;;;;;;;;;;;;;-144.99;100.00;67352.69;5094152;28;19955;-80
2024/03/13 02:10:40;;;;;;;;;;;;;;;-144.99;100.00;67352.69;5093654;28;19916;-80
2024/03/13 02:13:05;;;;;;;;;;;;;;;-144.99;100.00;67352.69;5096060;28;19920;-80
2024/03/13 02:15:30;;;;;;;;;;;;;;;-144.99;100.00;67352.69;5095471;28;19913;-80
2024/03/13 02:17:56;;;;;;;;;;;;;;;-144.99;100.00;67352.69;5095662;28;19947;-80
2024/03/13 02:20:27;;;;;;;;;;;;;;;-144.99;100.00;67352.69;5094794;28;19938;-80
2024/03/13 02:22:59;;;;;;;;;;;;;;;-144.99;100.00;67352.69;5097482;28;19973;-80
2024/03/13 02:25:24;;;;;;;;;;;;;;;-144.99;100.00;67352.69;5095842;28;19920;-80
2024/03/13 02:27:52;;;;;;;;;;;;;;;-144.99;100.00;67352.69;5097536;28;19916;-80
2024/03/13 02:30:18;;;;;;;;;;;;;;;-144.99;100.00;67352.69;5096901;28;19919;-80
2024/03/13 02:32:47;;;;;;;;;;;;;;;-144.99;100.00;67352.69;5098113;28;19975;-80
2024/03/13 02:35:13;;;;;;;;;;;;;;;-144.99;100.00;67352.69;5098380;28;19912;-80
2024/03/13 02:37:41;;;;;;;;;;;;;;;-144.99;100.00;67352.69;5098431;28;19912;-80
2024/03/13 02:40:07;;;;;;;;;;;;;;;-144.99;100.00;67352.69;5097565;28;20275;-80
2024/03/13 02:42:32;;;;;;;;;;;;;;;-144.99;100.00;67352.69;5097547;28;19912;-80
2024/03/13 02:44:58;;;;;;;;;;;;;;;-144.99;100.00;67352.69;5098909;28;19916;-80
2024/03/13 02:47:23;;;;;;;;;;;;;;;-144.99;100.00;67352.69;5098764;28;19920;-80
2024/03/13 02:49:48;;;;;;;;;;;;;;;-144.99;100.00;67352.69;5096451;28;19916;-80
2024/03/13 02:52:13;;;;;;;;;;;;;;;-144.99;100.00;67352.69;5098280;28;19915;-80
2024/03/13 02:54:39;;;;;;;;;;;;;;;-144.99;100.00;67352.69;5099885;28;19911;-80
2024/03/13 02:57:04;;;;;;;;;;;;;;;-144.99;100.00;67352.69;5101000;28;19920;-80
2024/03/13 02:59:30;;;;;;;;;;;;;;;-144.99;100.00;67352.69;5098461;28;19916;-80
2024/03/13 03:01:55;;;;;;;;;;;;;;;-144.99;100.00;67352.69;5100223;28;19951;-80
2024/03/13 03:04:21;;;;;;;;;;;;;;;-144.99;100.00;67352.69;5099098;28;19927;-80
2024/03/13 03:06:46;;;;;;;;;;;;;;;-144.99;100.00;67352.69;5099328;28;20391;-80
2024/03/13 03:09:11;;;;;;;;;;;;;;;-144.99;100.00;67352.69;5099772;28;19912;-80
2024/03/13 03:11:36;;;;;;;;;;;;;;;-144.99;100.00;67352.69;5105022;28;19963;-81
2024/03/13 03:14:04;;;;;;;;;;;;;;;-144.99;100.00;67352.69;5105452;28;19912;-80
2024/03/13 03:16:30;;;;;;;;;;;;;;;-144.99;100.00;67352.69;5105819;28;19912;-81
2024/03/13 03:18:55;;;;;;;;;;;;;;;-144.99;100.00;67352.69;5103077;28;19912;-80
2024/03/13 03:21:22;;;;;;;;;;;;;;;-144.99;100.00;67352.69;5105649;28;19992;-80
2024/03/13 03:23:48;;;;;;;;;;;;;;;-144.99;100.00;67352.69;5104818;28;19985;-80
2024/03/13 03:26:17;;;;;;;;;;;;;;;-144.99;100.00;67352.69;5103939;28;20398;-80
2024/03/13 03:28:42;;;;;;;;;;;;;;;-144.99;100.00;67352.69;5103485;28;20010;-81
2024/03/13 03:31:10;;;;;;;;;;;;;;;-144.99;100.00;67352.69;5103100;28;19945;-80
2024/03/13 03:33:35;;;;;;;;;;;;;;;-144.99;100.00;67352.69;5102012;28;19918;-80
2024/03/13 03:36:01;;;;;;;;;;;;;;;-144.99;100.00;67352.69;5101790;28;19912;-80
2024/03/13 03:38:28;;;;;;;;;;;;;;;-144.99;100.00;67352.69;5102628;28;20370;-80
2024/03/13 03:40:53;;;;;;;;;;;;;;;-144.99;100.00;67352.69;5100776;28;20425;-80
2024/03/13 03:43:19;;;;;;;;;;;;;;;-144.99;100.00;67352.69;5105190;28;19919;-80
2024/03/13 03:45:45;;;;;;;;;;;;;;;-144.99;100.00;67352.69;5106538;28;20391;-81
2024/03/13 03:48:11;;;;;;;;;;;;;;;-144.99;100.00;67352.69;5106500;28;19938;-80
2024/03/13 03:50:37;;;;;;;;;;;;;;;-144.99;100.00;67352.69;5104326;28;19912;-80
2024/03/13 03:53:02;;;;;;;;;;;;;;;-144.99;100.00;67352.69;5105734;28;19912;-80
2024/03/13 03:55:27;;;;;;;;;;;;;;;-144.99;100.00;67352.69;5104313;28;19919;-80
2024/03/13 03:57:53;;;;;;;;;;;;;;;-144.99;100.00;67352.69;5104240;28;19912;-80
2024/03/13 04:00:22;;;;;;;;;;;;;;;-144.99;100.00;67352.69;5102904;28;19911;-80
2024/03/13 04:02:47;;;;;;;;;;;;;;;-144.99;100.00;67352.69;5100184;28;19973;-80
2024/03/13 04:05:13;;;;;;;;;;;;;;;-144.99;100.00;67352.69;5102221;28;20374;-80
2024/03/13 04:07:38;;;;;;;;;;;;;;;-144.99;100.00;67352.69;5099122;28;19919;-80
2024/03/13 04:10:05;;;;;;;;;;;;;;;-144.99;100.00;67352.69;5098922;28;19916;-80
2024/03/13 04:12:30;;;;;;;;;;;;;;;-144.99;100.00;67352.69;5098722;28;19912;-80
2024/03/13 04:14:56;;;;;;;;;;;;;;;-144.99;100.00;67352.69;5099365;28;19912;-80
2024/03/13 04:17:22;;;;;;;;;;;;;;;-144.99;100.00;67352.69;5098408;28;20389;-80
2024/03/13 04:19:48;;;;;;;;;;;;;;;-144.99;100.00;67352.69;5100459;28;19934;-80
2024/03/13 04:22:15;;;;;;;;;;;;;;;-144.99;100.00;67352.69;5101427;28;20313;-80
2024/03/13 04:24:40;;;;;;;;;;;;;;;-144.99;100.00;67352.69;5097815;28;20268;-81
2024/03/13 04:27:05;;;;;;;;;;;;;;;-144.99;100.00;67352.69;5096483;28;19918;-80
2024/03/13 04:29:31;;;;;;;;;;;;;;;-144.99;100.00;67352.69;5098189;28;19918;-80
2024/03/13 04:31:57;;;;;;;;;;;;;;;-144.99;100.00;67352.69;5096836;28;20336;-81
2024/03/13 04:34:23;;;;;;;;;;;;;;;-144.99;100.00;67352.69;5092290;28;19919;-80
2024/03/13 04:36:48;;;;;;;;;;;;;;;-144.99;100.00;67352.69;5097881;28;19920;-80
2024/03/13 04:39:13;;;;;;;;;;;;;;;-144.99;100.00;67352.69;5098145;28;20305;-80
2024/03/13 04:41:42;;;;;;;;;;;;;;;-144.99;100.00;67352.69;5096431;28;20303;-80
2024/03/13 04:44:10;;;;;;;;;;;;;;;-144.99;100.00;67352.69;5096737;28;19916;-80
2024/03/13 04:46:38;;;;;;;;;;;;;;;-144.99;100.00;67352.69;5096995;28;19912;-80
2024/03/13 04:49:03;;;;;;;;;;;;;;;-144.99;100.00;67352.69;5096324;28;19990;-80
2024/03/13 04:51:29;;;;;;;;;;;;;;;-144.99;100.00;67352.69;5092116;28;20411;-80
2024/03/13 04:53:54;;;;;;;;;;;;;;;-144.99;100.00;67352.69;5094090;28;19916;-81
2024/03/13 04:56:19;;;;;;;;;;;;;;;-144.99;100.00;67352.69;5096761;28;20428;-80
2024/03/13 04:58:45;;;;;;;;;;;;;;;-144.99;100.00;67352.69;5095090;28;20007;-80
2024/03/13 05:01:17;;;;;;;;;;;;;;;-144.99;100.00;67352.69;5089754;28;19912;-80
2024/03/13 05:03:42;;;;;;;;;;;;;;;-144.99;100.00;67352.69;5093051;28;19934;-80
2024/03/13 05:06:07;;;;;;;;;;;;;;;-144.99;100.00;67352.69;5096076;28;20412;-80
2024/03/13 05:08:32;;;;;;;;;;;;;;;-144.99;100.00;67352.69;5094221;28;19930;-80
2024/03/13 05:10:58;;;;;;;;;;;;;;;-144.99;100.00;67352.69;5095205;28;20383;-80
2024/03/13 05:13:23;;;;;;;;;;;;;;;-144.99;100.00;67352.69;5095740;28;20014;-80
2024/03/13 05:15:48;;;;;;;;;;;;;;;-144.99;100.00;67352.69;5093694;28;19912;-80
2024/03/13 05:18:14;;;;;;;;;;;;;;;-144.99;100.00;67352.69;5095392;28;19919;-80
2024/03/13 05:20:39;;;;;;;;;;;;;;;-144.99;100.00;67352.69;5093264;28;19919;-80
2024/03/13 05:23:06;;;;;;;;;;;;;;;-144.99;100.00;67352.69;5093435;28;20397;-80
2024/03/13 05:25:31;;;;;;;;;;;;;;;-144.99;100.00;67352.69;5094601;28;19923;-80
2024/03/13 05:27:56;;;;;;;;;;;;;;;-144.99;100.00;67352.69;5094956;28;19927;-80
2024/03/13 05:30:22;;;;;;;;;;;;;;;-144.99;100.00;67352.69;5092701;28;19918;-80
2024/03/13 05:32:47;;;;;;;;;;;;;;;-144.99;100.00;67352.69;5092293;28;20096;-80
2024/03/13 05:35:15;;;;;;;;;;;;;;;-144.99;100.00;67352.69;5094056;28;19912;-81
2024/03/13 05:37:40;;;;;;;;;;;;;;;-144.99;100.00;67352.69;5093667;28;19923;-80
2024/03/13 05:40:19;;;;;;;;;;;;;;;-144.99;100.00;67352.69;5093082;28;19916;-80
2024/03/13 05:42:45;;;;;;;;;;;;;;;-144.99;100.00;67352.69;5092196;28;19922;-80
2024/03/13 05:45:11;;;;;;;;;;;;;;;-144.99;100.00;67352.69;5092194;28;19920;-81
2024/03/13 05:47:36;;;;;;;;;;;;;;;-144.99;100.00;67352.69;5092268;28;19912;-80
2024/03/13 05:50:02;;;;;;;;;;;;;;;-144.99;100.00;67352.69;5092997;28;19916;-80
2024/03/13 05:52:27;;;;;;;;;;;;;;;-144.99;100.00;67352.69;5093646;28;19912;-80
2024/03/13 05:54:52;;;;;;;;;;;;;;;-144.99;100.00;67352.69;5092079;28;19934;-80
2024/03/13 05:57:22;;;;;;;;;;;;;;;-144.99;100.00;67352.69;5091834;28;19954;-80
2024/03/13 05:59:48;;;;;;;;;;;;;;;-144.99;100.00;67352.69;5092453;28;19958;-80
2024/03/13 06:02:13;;;;;;;;;;;;;;;-144.99;100.00;67352.69;5092827;28;19919;-81
2024/03/13 06:04:39;;;;;;;;;;;;;;;-144.99;100.00;67352.69;5107310;28;19920;-81
2024/03/13 06:07:04;;;;;;;;;;;;;;;-144.99;100.00;67352.69;5105043;28;19959;-81
2024/03/13 06:09:30;;;;;;;;;;;;;;;-144.99;100.00;67352.69;5103722;28;19919;-80
2024/03/13 06:11:56;;;;;;;;;;;;;;;-144.99;100.00;67352.69;5104500;28;19912;-81
2024/03/13 06:14:21;;;;;;;;;;;;;;;-144.99;100.00;67352.69;5106348;28;19912;-80
2024/03/13 06:16:46;;;;;;;;;;;;;;;-144.99;100.00;67352.69;5103420;28;19916;-80
2024/03/13 06:19:12;;;;;;;;;;;;;;;-144.99;100.00;67352.69;5102536;28;19951;-80
2024/03/13 06:21:37;;;;;;;;;;;;;;;-144.99;100.00;67352.69;5103859;28;19912;-80
2024/03/13 06:24:05;;;;;;;;;;;;;;;-144.99;100.00;67352.69;5103734;28;19977;-81
2024/03/13 06:26:30;;;;;;;;;;;;;;;-144.99;100.00;67352.69;5103062;28;19912;-80
2024/03/13 06:31:40;;;;;;;;;;;;;;;-144.99;100.00;67352.69;5097937;28;19932;-81
2024/03/13 06:34:06;;;;;;;;;;;;;;;-144.99;100.00;67352.69;5099862;28;20007;-81
2024/03/13 06:36:31;;;;;;;;;;;;;;;-144.99;100.00;67352.69;5097285;28;19916;-84
2024/03/13 06:38:56;;;;;;;;;;;;;;;-144.99;100.00;67352.69;5095481;28;19912;-80
2024/03/13 06:41:22;;;;;;;;;;;;;;;-144.99;100.00;67352.69;5100800;28;19912;-81
2024/03/13 06:43:47;;;;;;;;;;;;;;;-144.99;100.00;67352.69;5100907;28;19969;-80
2024/03/13 06:46:13;;;;;;;;;;;;;;;-144.99;100.00;67352.69;5098854;28;19919;-80
2024/03/13 06:48:38;;;;;;;;;;;;;;;-144.99;100.00;67352.69;5100214;28;20446;-80
2024/03/13 06:51:08;;;;;;;;;;;;;;;-144.99;100.00;67352.69;5096935;28;19945;-80
2024/03/13 06:53:33;;;;;;;;;;;;;;;-144.99;100.00;67352.69;5099298;28;19998;-80
2024/03/13 06:55:59;;;;;;;;;;;;;;;-144.99;100.00;67352.69;5097221;28;19997;-80
2024/03/13 06:58:24;;;;;;;;;;;;;;;-144.99;100.00;67352.69;5096857;28;19916;-80
2024/03/13 07:00:50;;;;;;;;;;;;;;;-144.99;100.00;67352.69;5095739;28;20391;-80
2024/03/13 07:03:15;;;;;;;;;;;;;;;-144.99;100.00;67352.69;5096886;28;20010;-80
2024/03/13 07:05:41;;;;;;;;;;;;;;;-144.99;100.00;67352.69;5094727;28;20013;-80
2024/03/13 07:08:06;;;;;;;;;;;;;;;-144.99;100.00;67352.69;5098580;28;19912;-80
2024/03/13 07:10:32;;;;;;;;;;;;;;;-144.99;100.00;67352.69;5085946;28;19944;-80
2024/03/13 07:12:58;;;;;;;;;;;;;;;-144.99;100.00;67352.69;5095219;28;19912;-80
2024/03/13 07:15:23;;;;;;;;;;;;;;;-144.99;100.00;67352.69;5095298;28;20428;-80
2024/03/13 07:17:48;;;;;;;;;;;;;;;-144.99;100.00;67352.69;5096468;28;20424;-80
2024/03/13 07:20:13;;;;;;;;;;;;;;;-144.99;100.00;67352.69;5093841;28;20351;-80
2024/03/13 07:22:39;;;;;;;;;;;;;;;-144.99;100.00;67352.69;5094608;28;19912;-80
2024/03/13 07:25:07;;;;;;;;;;;;;;;-144.99;100.00;67352.69;5094018;28;19977;-80
2024/03/13 07:27:32;;;;;;;;;;;;;;;-144.99;100.00;67352.69;5095714;28;19912;-80
2024/03/13 07:29:58;;;;;;;;;;;;;;;-144.99;100.00;67352.69;5094162;28;19920;-80
2024/03/13 07:32:23;;;;;;;;;;;;;;;-144.99;100.00;67352.69;5094831;28;19912;-80
2024/03/13 07:34:48;;;;;;;;;;;;;;;-144.99;100.00;67352.69;5094662;28;20000;-80
2024/03/13 07:37:13;;;;;;;;;;;;;;;-144.99;100.00;67352.69;5092289;28;19920;-80
2024/03/13 07:39:39;;;;;;;;;;;;;;;-144.99;100.00;67352.69;5092121;28;19912;-80
2024/03/13 07:42:04;;;;;;;;;;;;;;;-144.99;100.00;67352.69;5093022;28;19960;-79
2024/03/13 07:44:30;;;;;;;;;;;;;;;-144.99;100.00;67352.69;5092409;28;19916;-80
2024/03/13 07:46:55;;;;;;;;;;;;;;;-144.99;100.00;67352.69;5093695;28;19947;-80
2024/03/13 07:49:21;;;;;;;;;;;;;;;-144.99;100.00;67352.69;5091547;28;19958;-80
2024/03/13 07:51:46;;;;;;;;;;;;;;;-144.99;100.00;67352.69;5094095;28;20382;-80
2024/03/13 07:54:11;;;;;;;;;;;;;;;-144.99;100.00;67352.69;5096218;28;19912;-80
2024/03/13 07:56:37;;;;;;;;;;;;;;;-144.99;100.00;67352.69;5096761;28;19919;-80
2024/03/13 07:59:06;;;;;;;;;;;;;;;-144.99;100.00;67352.69;5095575;28;19976;-80
2024/03/13 08:01:31;;;;;;;;;;;;;;;-144.99;100.00;67352.69;5096697;28;20336;-80
2024/03/13 08:03:56;;;;;;;;;;;;;;;-144.99;100.00;67352.69;5097375;28;19920;-80
2024/03/13 08:06:21;;;;;;;;;;;;;;;-144.99;100.00;67352.69;5096850;28;20440;-80
2024/03/13 08:08:47;;;;;;;;;;;;;;;-144.99;100.00;67352.69;5097857;28;20006;-80
2024/03/13 08:11:12;;;;;;;;;;;;;;;-144.99;100.00;67352.69;5098098;28;19931;-80
2024/03/13 08:13:37;;;;;;;;;;;;;;;-144.99;100.00;67352.69;5097408;28;19912;-80
2024/03/13 08:16:03;;;;;;;;;;;;;;;-144.99;100.00;67352.69;5099247;28;19948;-80
2024/03/13 08:18:28;;;;;;;;;;;;;;;-144.99;100.00;67352.69;5099288;28;20378;-80
2024/03/13 08:20:54;;;;;;;;;;;;;;;-144.99;100.00;67352.69;5098693;28;19916;-80
2024/03/13 08:23:19;;;;;;;;;;;;;;;-144.99;100.00;67352.69;5099518;28;19912;-80
2024/03/13 08:25:45;;;;;;;;;;;;;;;-144.99;100.00;67352.69;5099687;28;19938;-80
2024/03/13 08:28:10;;;;;;;;;;;;;;;-144.99;100.00;67352.69;5098401;28;19912;-80
2024/03/13 08:30:36;;;;;;;;;;;;;;;-144.99;100.00;67352.69;5099500;28;19939;-80
2024/03/13 08:33:01;;;;;;;;;;;;;;;-144.99;100.00;67352.69;5095498;28;19919;-80
2024/03/13 08:35:29;;;;;;;;;;;;;;;-144.99;100.00;67352.69;5101157;28;19912;-80
2024/03/13 08:37:59;;;;;;;;;;;;;;;-144.99;100.00;67352.69;5101007;28;19916;-80
2024/03/13 08:40:24;;;;;;;;;;;;;;;-144.99;100.00;67352.69;5099378;28;19916;-80
2024/03/13 08:42:49;;;;;;;;;;;;;;;-144.99;100.00;67352.69;5100461;28;19912;-80
2024/03/13 08:45:14;;;;;;;;;;;;;;;-144.99;100.00;67352.69;5100004;28;20340;-80
2024/03/13 08:47:40;;;;;;;;;;;;;;;-144.99;100.00;67352.69;5100653;28;20081;-80
2024/03/13 08:50:05;;;;;;;;;;;;;;;-144.99;100.00;67352.69;5100687;28;19919;-80
2024/03/13 08:52:34;;;;;;;;;;;;;;;-144.99;100.00;67352.69;5099468;28;19920;-80
2024/03/13 08:55:00;;;;;;;;;;;;;;;-144.99;100.00;67352.69;5099712;28;19912;-80
2024/03/13 08:57:28;;;;;;;;;;;;;;;-144.99;100.00;67352.69;5105886;28;19948;-80
2024/03/13 08:59:54;;;;;;;;;;;;;;;-144.99;100.00;67352.69;5101066;28;19915;-79
2024/03/13 09:02:20;;;;;;;;;;;;;;;-144.99;100.00;67352.69;5093404;28;19912;-80
2024/03/13 09:04:45;;;;;;;;;;;;;;;-144.99;100.00;67352.69;5093610;28;19999;-80
2024/03/13 09:07:10;;;;;;;;;;;;;;;-144.99;100.00;67352.69;5094902;28;19912;-80
2024/03/13 09:09:39;;;;;;;;;;;;;;;-144.99;100.00;67352.69;5094840;28;19912;-80
2024/03/13 09:12:08;;;;;;;;;;;;;;;-144.99;100.00;67352.69;5095022;28;19982;-80
2024/03/13 09:14:36;;;;;;;;;;;;;;;-144.99;100.00;67352.69;5095353;28;19912;-80
2024/03/13 09:17:04;;;;;;;;;;;;;;;-144.99;100.00;67352.69;5095612;28;19920;-81
2024/03/13 09:19:30;;;;;;;;;;;;;;;-144.99;100.00;67352.69;5093319;28;20394;-80
2024/03/13 09:21:57;;;;;;;;;;;;;;;-144.99;100.00;67352.69;5093447;28;19912;-81
2024/03/13 09:24:23;;;;;;;;;;;;;;;-144.99;100.00;67352.69;5094249;28;19916;-81
2024/03/13 09:26:48;;;;;;;;;;;;;;;-144.99;100.00;67352.69;5095871;28;20006;-80
2024/03/13 09:29:14;;;;;;;;;;;;;;;-144.99;100.00;67352.69;5095255;28;19984;-80
2024/03/13 09:31:42;;;;;;;;;;;;;;;-144.99;100.00;67352.69;5095795;28;19912;-81
2024/03/13 09:34:10;;;;;;;;;;;;;;;-144.99;100.00;67352.69;5096682;28;19935;-83
2024/03/13 09:36:35;;;;;;;;;;;;;;;-144.99;100.00;67352.69;5099602;28;19959;-80
2024/03/13 09:39:01;;;;;;;;;;;;;;;-144.99;100.00;67352.69;5097469;28;19912;-80
2024/03/13 09:41:26;;;;;;;;;;;;;;;-144.99;100.00;67352.69;5096383;28;19919;-81
2024/03/13 09:43:51;;;;;;;;;;;;;;;-144.99;100.00;67352.69;5097098;28;19951;-79
2024/03/13 09:46:16;;;;;;;;;;;;;;;-144.99;100.00;67352.69;5097237;28;19912;-80
2024/03/13 09:48:42;;;;;;;;;;;;;;;-144.99;100.00;67352.69;5098317;28;19965;-80
2024/03/13 09:51:11;;;;;;;;;;;;;;;-144.99;100.00;67352.69;5097843;28;20332;-80
2024/03/13 09:53:38;;;;;;;;;;;;;;;-144.99;100.00;67352.69;5098617;28;19912;-80
2024/03/13 09:56:03;;;;;;;;;;;;;;;-144.99;100.00;67352.69;5096888;28;20002;-80
2024/03/13 09:58:30;;;;;;;;;;;;;;;-144.99;100.00;67352.69;5098280;28;19954;-79
2024/03/13 10:00:57;;;;;;;;;;;;;;;-144.99;100.00;67352.69;5097187;28;19912;-80
2024/03/13 10:03:24;;;;;;;;;;;;;;;-144.99;100.00;67352.69;5098608;28;19916;-80
2024/03/13 10:06:12;;;;;;;;;;;;;;;-144.99;100.00;67352.69;5099630;28;19920;-80
2024/03/13 10:08:42;;;;;;;;;;;;;;;-144.99;100.00;67352.69;5101850;28;19912;-80
2024/03/13 10:11:09;;;;;;;;;;;;;;;-144.99;100.00;67352.69;5108689;28;19918;-80
2024/03/13 10:13:37;;;;;;;;;;;;;;;-144.99;100.00;67352.69;5106898;28;19938;-80
2024/03/13 10:16:03;;;;;;;;;;;;;;;-144.99;100.00;67352.69;5106804;28;19967;-80
2024/03/13 10:18:29;;;;;;;;;;;;;;;-144.99;100.00;67352.69;5100198;28;20004;-80
2024/03/13 10:21:06;;;;;;;;;;;;;;;-144.99;100.00;67352.69;5096108;28;20365;-80
2024/03/13 10:23:33;;;;;;;;;;;;;;;-144.99;100.00;67352.69;5097838;28;20382;-80
2024/03/13 10:25:59;;;;;;;;;;;;;;;-144.99;100.00;67352.69;5099164;28;19912;-80
2024/03/13 10:28:25;;;;;;;;;;;;;;;-144.99;100.00;67352.69;5098387;28;19916;-80
2024/03/13 10:30:54;;;;;;;;;;;;;;;-144.99;100.00;67352.69;5097276;28;19998;-80
2024/03/13 10:33:19;;;;;;;;;;;;;;;-144.99;100.00;67352.69;5099141;28;20417;-80
2024/03/13 10:35:45;;;;;;;;;;;;;;;-144.99;100.00;67352.69;5098583;28;19913;-80
2024/03/13 10:38:14;;;;;;;;;;;;;;;-144.99;100.00;67352.69;5097892;28;19912;-80
2024/03/13 10:40:42;;;;;;;;;;;;;;;-144.99;100.00;67352.69;5098141;28;19912;-80
2024/03/13 10:43:10;;;;;;;;;;;;;;;-144.99;100.00;67352.69;5097544;28;20011;-80
2024/03/13 10:45:39;;;;;;;;;;;;;;;-144.99;100.00;67352.69;5097062;28;19939;-80
2024/03/13 10:48:12;;;;;;;;;;;;;;;-144.99;100.00;67352.69;5098344;28;19916;-81
2024/03/13 10:50:37;;;;;;;;;;;;;;;-144.99;100.00;67352.69;5098461;28;19912;-80
2024/03/13 10:53:05;;;;;;;;;;;;;;;-144.99;100.00;67352.69;5096625;28;19934;-80
2024/03/13 10:55:31;;;;;;;;;;;;;;;-144.99;100.00;67352.69;5097403;28;19944;-80
2024/03/13 10:57:56;;;;;;;;;;;;;;;-144.99;100.00;67352.69;5097820;28;19919;-80
2024/03/13 11:00:22;;;;;;;;;;;;;;;-144.99;100.00;67352.69;5096111;28;19912;-80
2024/03/13 11:02:50;;;;;;;;;;;;;;;-144.99;100.00;67352.69;5098428;28;19999;-80
2024/03/13 11:05:16;;;;;;;;;;;;;;;-144.99;100.00;67352.69;5098676;28;19916;-80
2024/03/13 11:07:41;;;;;;;;;;;;;;;-144.99;100.00;67352.69;5097376;28;19912;-80
2024/03/13 11:10:10;;;;;;;;;;;;;;;-144.99;100.00;67352.69;5098649;28;19970;-80
2024/03/13 11:12:37;;;;;;;;;;;;;;;-144.99;100.00;67352.69;5097844;28;19962;-80
2024/03/13 11:15:06;;;;;;;;;;;;;;;-144.99;100.00;67352.69;5098564;28;19912;-81
2024/03/13 11:17:31;;;;;;;;;;;;;;;-144.99;100.00;67352.69;5099882;28;19945;-80
2024/03/13 11:20:08;;;;;;;;;;;;;;;-144.99;100.00;67352.69;5097489;28;19912;-80
2024/03/13 11:22:34;;;;;;;;;;;;;;;-144.99;100.00;67352.69;5097825;28;19938;-80
2024/03/13 11:25:01;;;;;;;;;;;;;;;-144.99;100.00;67352.69;5099300;28;19916;-80
2024/03/13 11:27:27;;;;;;;;;;;;;;;-144.99;100.00;67352.69;5089679;28;19916;-80
2024/03/13 11:29:54;;;;;;;;;;;;;;;-144.99;100.00;67352.69;5097265;28;19912;-80
2024/03/13 11:32:20;;;;;;;;;;;;;;;-144.99;100.00;67352.69;5095983;28;19912;-80
2024/03/13 11:34:46;;;;;;;;;;;;;;;-144.99;100.00;67352.69;5093134;28;20006;-80
2024/03/13 11:37:12;;;;;;;;;;;;;;;-144.99;100.00;67352.69;5097106;28;19956;-80
2024/03/13 11:39:41;;;;;;;;;;;;;;;-144.99;100.00;67352.69;5098921;28;20282;-80
2024/03/13 11:42:09;;;;;;;;;;;;;;;-144.99;100.00;67352.69;5097048;28;19912;-80
2024/03/13 11:44:36;;;;;;;;;;;;;;;-144.99;100.00;67352.69;5098394;28;19922;-80
2024/03/13 11:47:01;;;;;;;;;;;;;;;-144.99;100.00;67352.69;5096734;28;19920;-80
2024/03/13 11:49:29;;;;;;;;;;;;;;;-144.99;100.00;67352.69;5103371;28;19912;-80
2024/03/13 11:52:03;;;;;;;;;;;;;;;-144.99;100.00;67352.69;5103167;28;19912;-80
2024/03/13 11:54:30;;;;;;;;;;;;;;;-144.99;100.00;67352.69;5103862;28;19912;-80
2024/03/13 11:57:05;;;;;;;;;;;;;;;-144.99;100.00;67352.69;5103210;28;20366;-80
2024/03/13 11:59:40;;;;;;;;;;;;;;;-144.99;100.00;67352.69;5101139;28;20240;-80
2024/03/13 12:02:26;;;;;;;;;;;;;;;-144.99;100.00;67352.69;5103650;28;19919;-80
2024/03/13 12:04:51;;;;;;;;;;;;;;;-144.99;100.00;67352.69;5105622;28;19991;-80
2024/03/13 12:07:20;;;;;;;;;;;;;;;-144.99;100.00;67352.69;5104302;28;19974;-80
2024/03/13 12:09:46;;;;;;;;;;;;;;;-144.99;100.00;67352.69;5103631;28;19919;-80
2024/03/13 12:12:13;;;;;;;;;;;;;;;-144.99;100.00;67352.69;5103824;28;19912;-80
2024/03/13 12:14:38;;;;;;;;;;;;;;;-144.99;100.00;67352.69;5105607;28;20200;-81
2024/03/13 12:17:05;;;;;;;;;;;;;;;-144.99;100.00;67352.69;5103814;28;20329;-80
2024/03/13 12:19:30;;;;;;;;;;;;;;;-144.99;100.00;67352.69;5104131;28;19912;-80
2024/03/13 12:21:57;;;;;;;;;;;;;;;-144.99;100.00;67352.69;5102594;28;20374;-80
2024/03/13 12:24:23;;;;;;;;;;;;;;;-144.99;100.00;67352.69;5104475;28;19916;-80
2024/03/13 12:26:51;;;;;;;;;;;;;;;-144.99;100.00;67352.69;5103759;28;19918;-80
2024/03/13 12:29:17;;;;;;;;;;;;;;;-144.99;100.00;67352.69;5102725;28;19995;-80
2024/03/13 12:31:42;;;;;;;;;;;;;;;-144.99;100.00;67352.69;5101738;28;19940;-80
2024/03/13 12:34:10;;;;;;;;;;;;;;;-144.99;100.00;67352.69;5100603;28;19912;-81
2024/03/13 12:36:43;;;;;;;;;;;;;;;-144.99;100.00;67352.69;5098238;28;19962;-80
2024/03/13 12:39:10;;;;;;;;;;;;;;;-144.99;100.00;67352.69;5092487;28;19922;-80